Time;durP1;ratioP1;P1;durP2;ratioP2;P2;SDS_P1;SDS_P2;PMS_P1;PMS_P2;Temp;Humidity;BMP_temperature;BMP_pressure;BME280_temperature;BME280_humidity;BME280_pressure;Samples;Min_cycle;Max_cycle;Signal;HPM_P1;HPM_P2
2021/05/28 00:00:37;;;;;;;14.27;6.25;;;;;;;11.89;54.21;98626.94;4941251;28;20043;-72
2021/05/28 00:03:02;;;;;;;12.45;6.30;;;;;;;11.91;53.84;98627.47;4944474;28;20488;-72
2021/05/28 00:05:28;;;;;;;9.80;5.72;;;;;;;11.91;53.57;98625.56;4957485;28;20015;-72
2021/05/28 00:07:55;;;;;;;12.57;6.82;;;;;;;11.93;54.21;98629.94;4941951;29;20110;-72
2021/05/28 00:10:21;;;;;;;10.60;6.28;;;;;;;11.92;54.35;98631.84;4942998;28;20051;-72
2021/05/28 00:12:47;;;;;;;11.93;6.70;;;;;;;11.93;54.47;98633.47;4943802;29;20086;-72
2021/05/28 00:15:14;;;;;;;12.15;6.20;;;;;;;11.93;54.42;98638.19;4958324;28;20031;-71
2021/05/28 00:17:40;;;;;;;13.95;6.28;;;;;;;11.88;53.81;98639.88;4943444;29;20560;-72
2021/05/28 00:20:08;;;;;;;16.83;7.90;;;;;;;11.90;54.48;98645.91;4943900;29;20040;-72
2021/05/28 00:22:34;;;;;;;16.63;6.65;;;;;;;11.89;54.50;98636.03;4942833;28;20047;-72
2021/05/28 00:24:59;;;;;;;9.95;5.70;;;;;;;11.89;54.46;98637.94;4943402;29;20023;-72
2021/05/28 00:27:29;;;;;;;12.93;7.72;;;;;;;11.87;54.56;98637.44;4940638;29;20486;-72
2021/05/28 00:29:55;;;;;;;11.68;8.05;;;;;;;11.89;54.74;98647.03;4944450;29;20469;-72
2021/05/28 00:32:21;;;;;;;14.18;6.75;;;;;;;11.91;54.25;98636.53;4939270;28;20035;-72
2021/05/28 00:34:49;;;;;;;16.38;7.50;;;;;;;11.95;54.69;98646.94;4941574;28;20034;-72
2021/05/28 00:37:14;;;;;;;14.43;6.95;;;;;;;11.99;54.59;98640.56;4941487;29;20052;-72
2021/05/28 00:39:40;;;;;;;12.18;6.90;;;;;;;12.00;54.32;98646.88;4942600;29;20116;-72
2021/05/28 00:42:05;;;;;;;13.20;6.15;;;;;;;12.04;54.39;98645.13;4938500;29;20078;-72
2021/05/28 00:44:32;;;;;;;14.35;6.40;;;;;;;12.07;54.85;98644.53;4942473;29;20031;-72
2021/05/28 00:46:57;;;;;;;11.85;6.40;;;;;;;12.10;54.48;98643.13;4941511;29;20105;-72
2021/05/28 00:49:23;;;;;;;17.55;7.28;;;;;;;12.13;54.50;98643.34;4944499;28;20111;-72
2021/05/28 00:51:49;;;;;;;20.10;7.28;;;;;;;12.16;54.89;98658.44;4941422;29;20113;-72
2021/05/28 00:54:14;;;;;;;21.48;7.47;;;;;;;12.15;55.01;98648.56;4942735;29;20118;-73
2021/05/28 00:56:40;;;;;;;22.77;7.90;;;;;;;12.16;54.68;98655.69;4945883;29;20110;-72
2021/05/28 00:59:06;;;;;;;17.25;7.32;;;;;;;12.14;54.31;98655.97;4945997;28;20038;-72
2021/05/28 01:01:33;;;;;;;19.92;7.40;;;;;;;12.13;54.77;98653.53;4942568;29;20024;-72
2021/05/28 01:03:58;;;;;;;20.00;7.88;;;;;;;12.12;54.31;98649.94;4948667;28;20054;-72
2021/05/28 01:06:25;;;;;;;18.92;8.40;;;;;;;12.11;54.77;98653.81;4947463;29;20485;-72
2021/05/28 01:08:50;;;;;;;20.20;8.35;;;;;;;12.09;54.48;98658.81;4947261;28;20030;-70
2021/05/28 01:11:15;;;;;;;20.23;8.60;;;;;;;12.06;54.11;98659.41;4942784;29;20028;-70
2021/05/28 01:13:41;;;;;;;18.33;8.55;;;;;;;12.01;54.48;98651.28;4949343;28;20037;-70
2021/05/28 01:16:06;;;;;;;21.42;9.13;;;;;;;11.95;54.62;98650.50;4949343;29;20402;-70
2021/05/28 01:18:32;;;;;;;21.30;10.50;;;;;;;11.94;54.71;98659.06;4948142;28;20118;-71
2021/05/28 01:20:58;;;;;;;20.00;10.13;;;;;;;11.90;55.04;98654.16;4959989;28;20059;-69
2021/05/28 01:23:23;;;;;;;23.60;10.32;;;;;;;11.86;55.00;98653.13;4949545;29;20121;-70
2021/05/28 01:25:48;;;;;;;23.55;10.18;;;;;;;11.79;54.88;98671.13;4949427;28;20055;-70
2021/05/28 01:28:14;;;;;;;19.17;8.82;;;;;;;11.71;54.49;98658.84;4947731;29;20066;-70
2021/05/28 01:30:40;;;;;;;17.50;9.05;;;;;;;11.67;54.84;98668.78;4944607;29;20028;-70
2021/05/28 01:33:05;;;;;;;16.05;8.85;;;;;;;11.62;55.17;98661.47;4948626;28;20485;-70
2021/05/28 01:35:31;;;;;;;17.02;8.40;;;;;;;11.55;54.66;98656.34;4949142;29;20034;-70
2021/05/28 01:37:56;;;;;;;20.00;9.15;;;;;;;11.50;54.47;98661.91;4963333;28;20062;-70
2021/05/28 01:40:23;;;;;;;20.58;10.35;;;;;;;11.41;55.39;98666.44;4946630;29;20063;-70
2021/05/28 01:42:48;;;;;;;19.98;10.20;;;;;;;11.34;55.27;98668.72;4939050;29;20023;-70
2021/05/28 01:45:14;;;;;;;20.70;10.73;;;;;;;11.27;55.13;98660.88;4956649;28;20634;-70
2021/05/28 01:47:40;;;;;;;20.50;10.93;;;;;;;11.19;55.20;98667.03;4938597;29;20704;-70
2021/05/28 01:50:09;;;;;;;24.80;11.25;;;;;;;11.13;55.31;98663.53;4943427;28;20035;-70
2021/05/28 01:52:34;;;;;;;31.23;14.00;;;;;;;11.06;55.21;98666.63;4957198;28;20076;-72
2021/05/28 01:55:04;;;;;;;28.40;14.43;;;;;;;11.01;55.43;98666.69;4943314;29;20061;-72
2021/05/28 01:57:29;;;;;;;28.83;14.20;;;;;;;10.96;56.13;98678.56;4941731;28;20051;-72
2021/05/28 01:59:54;;;;;;;24.98;12.82;;;;;;;10.92;55.31;98669.28;4942047;29;20516;-73
2021/05/28 02:02:20;;;;;;;24.17;12.90;;;;;;;10.89;55.60;98666.31;4942508;29;20031;-72
2021/05/28 02:04:45;;;;;;;16.90;10.90;;;;;;;10.81;56.14;98667.75;4942818;28;20034;-72
2021/05/28 02:07:11;;;;;;;20.17;10.13;;;;;;;10.78;56.05;98671.91;4940359;29;20036;-72
2021/05/28 02:09:37;;;;;;;13.93;9.23;;;;;;;10.76;56.23;98667.84;4943083;28;20039;-72
2021/05/28 02:12:02;;;;;;;16.73;9.48;;;;;;;10.72;56.59;98665.69;4941117;29;20038;-72
2021/05/28 02:14:29;;;;;;;17.70;10.13;;;;;;;10.71;55.78;98666.78;4941458;28;20023;-72
2021/05/28 02:16:55;;;;;;;17.10;9.88;;;;;;;10.70;56.69;98667.91;4941032;29;20074;-71
2021/05/28 02:19:21;;;;;;;21.10;11.90;;;;;;;10.69;55.78;98668.16;4940040;29;20028;-72
2021/05/28 02:21:51;;;;;;;17.17;10.95;;;;;;;10.69;55.98;98676.41;4933080;29;20055;-72
2021/05/28 02:24:16;;;;;;;;;;;;;;;10.65;56.58;98672.59;4950501;29;20059;-71
2021/05/28 02:26:47;;;;;;;16.00;9.27;;;;;;;10.57;56.32;98674.91;4950489;29;19954;-72
2021/05/28 02:29:13;;;;;;;13.43;8.65;;;;;;;10.53;56.43;98673.00;4946322;29;20119;-72
2021/05/28 02:31:39;;;;;;;13.57;8.55;;;;;;;10.48;56.26;98668.41;4934404;28;20514;-72
2021/05/28 02:34:05;;;;;;;14.00;7.43;;;;;;;10.46;56.39;98681.59;4943188;29;20134;-71
2021/05/28 02:36:31;;;;;;;16.38;8.30;;;;;;;10.45;56.84;98670.91;4949413;29;20142;-72
2021/05/28 02:38:57;;;;;;;12.40;7.13;;;;;;;10.43;56.76;98679.44;4940562;29;20047;-72
2021/05/28 02:41:22;;;;;;;16.17;8.18;;;;;;;10.42;56.85;98680.53;4932829;29;20067;-72
2021/05/28 02:43:48;;;;;;;12.52;6.38;;;;;;;10.35;56.52;98678.13;4945016;29;20034;-72
2021/05/28 02:46:13;;;;;;;13.77;7.35;;;;;;;10.31;56.84;98688.03;4945355;28;20027;-71
2021/05/28 02:48:39;;;;;;;14.98;7.35;;;;;;;10.30;56.72;98689.13;4947952;29;20138;-72
2021/05/28 02:51:04;;;;;;;14.02;7.28;;;;;;;10.31;57.57;98692.66;4931963;29;20490;-71
2021/05/28 02:53:34;;;;;;;25.52;8.48;;;;;;;10.26;57.14;98693.53;4931440;29;20034;-71
2021/05/28 02:56:04;;;;;;;19.90;7.30;;;;;;;10.23;57.58;98697.66;4930765;29;20027;-72
2021/05/28 02:58:29;;;;;;;;;;;;;;;10.21;56.91;98697.13;4936741;28;20032;-72
2021/05/28 03:00:55;;;;;;;16.80;7.55;;;;;;;10.18;57.26;98707.88;4936478;29;19944;-72
2021/05/28 03:03:20;;;;;;;21.73;8.10;;;;;;;10.12;56.91;98715.31;4949774;28;20547;-72
2021/05/28 03:05:46;;;;;;;17.63;8.13;;;;;;;10.10;57.06;98712.06;4915896;29;20030;-72
2021/05/28 03:08:11;;;;;;;20.90;9.40;;;;;;;10.07;57.26;98715.38;4937096;29;20035;-71
2021/05/28 03:10:37;;;;;;;16.10;8.30;;;;;;;10.06;57.84;98714.53;4946830;28;20027;-73
2021/05/28 03:13:02;;;;;;;19.00;11.85;;;;;;;10.05;57.77;98707.41;4933701;29;20036;-72
2021/05/28 03:15:27;;;;;;;18.02;11.40;;;;;;;10.02;56.96;98723.63;4937217;29;20086;-72
2021/05/28 03:17:53;;;;;;;28.27;10.88;;;;;;;10.00;57.10;98717.59;4940428;29;20039;-72
2021/05/28 03:20:25;;;;;;;22.30;10.95;;;;;;;9.97;56.95;98716.28;4931650;29;20040;-72
2021/05/28 03:22:51;;;;;;;28.17;11.50;;;;;;;9.92;57.45;98716.31;4962564;28;20524;-72
2021/05/28 03:25:17;;;;;;;24.42;11.40;;;;;;;9.92;57.28;98716.31;4933948;29;20036;-71
2021/05/28 03:27:43;;;;;;;27.65;11.55;;;;;;;9.91;58.15;98725.63;4933739;29;20115;-72
2021/05/28 03:30:10;;;;;;;28.80;12.35;;;;;;;9.95;57.82;98722.03;4932708;29;20027;-72
2021/05/28 03:32:37;;;;;;;26.98;12.38;;;;;;;9.97;57.95;98721.75;4944797;29;20038;-71
2021/05/28 03:35:04;;;;;;;29.85;13.02;;;;;;;9.96;58.53;98717.38;4931201;29;20032;-71
2021/05/28 03:37:30;;;;;;;29.02;14.45;;;;;;;9.95;57.84;98716.53;4953006;28;20061;-71
2021/05/28 03:39:55;;;;;;;32.42;12.55;;;;;;;9.94;58.31;98716.84;4949500;28;20028;-72
2021/05/28 03:42:21;;;;;;;24.73;12.48;;;;;;;9.93;58.88;98717.94;4931860;29;20131;-71
2021/05/28 03:44:46;;;;;;;32.03;14.27;;;;;;;9.94;58.55;98719.56;4957371;28;20034;-72
2021/05/28 03:47:13;;;;;;;31.65;14.68;;;;;;;9.93;58.86;98724.22;4930699;29;20063;-70
2021/05/28 03:49:39;;;;;;;28.15;13.10;;;;;;;9.96;58.96;98726.41;4931064;29;20035;-72
2021/05/28 03:52:05;;;;;;;24.48;12.77;;;;;;;9.98;59.12;98724.19;4941293;29;20031;-71
2021/05/28 03:54:32;;;;;;;24.52;12.27;;;;;;;9.99;59.16;98719.50;4943110;28;20043;-71
2021/05/28 03:56:57;;;;;;;28.50;12.52;;;;;;;10.03;59.25;98720.56;4935590;29;20087;-71
2021/05/28 03:59:22;;;;;;;25.45;11.73;;;;;;;10.10;60.05;98721.06;4949790;28;20035;-71
2021/05/28 04:01:48;;;;;;;24.33;11.85;;;;;;;10.15;59.17;98720.22;4940228;28;20043;-71
2021/05/28 04:04:13;;;;;;;24.75;12.68;;;;;;;10.21;59.77;98721.81;4940637;29;20031;-71
2021/05/28 04:06:39;;;;;;;23.75;12.98;;;;;;;10.26;59.73;98721.75;4949188;29;20032;-71
2021/05/28 04:09:04;;;;;;;26.77;13.52;;;;;;;10.30;59.71;98738.47;4941689;28;20035;-71
2021/05/28 04:11:30;;;;;;;29.75;13.77;;;;;;;10.35;59.99;98732.94;4940002;28;20028;-71
2021/05/28 04:13:55;;;;;;;26.10;13.15;;;;;;;10.42;59.86;98730.69;4941180;29;20019;-71
2021/05/28 04:16:20;;;;;;;27.85;13.88;;;;;;;10.49;60.36;98724.06;4952873;28;20090;-71
2021/05/28 04:18:46;;;;;;;27.05;13.57;;;;;;;10.58;59.75;98730.56;4949948;28;20070;-71
2021/05/28 04:21:11;;;;;;;29.05;14.13;;;;;;;10.67;60.20;98733.47;4950489;29;20050;-72
2021/05/28 04:23:37;;;;;;;28.00;14.20;;;;;;;10.79;60.37;98731.16;4933921;28;20406;-71
2021/05/28 04:26:03;;;;;;;25.63;13.23;;;;;;;10.90;60.47;98734.59;4938698;29;20110;-71
2021/05/28 04:28:29;;;;;;;22.80;12.88;;;;;;;10.97;60.14;98737.00;4952335;28;20042;-70
2021/05/28 04:30:57;;;;;;;28.77;13.18;;;;;;;11.06;59.73;98729.75;4946989;28;20078;-71
2021/05/28 04:33:23;;;;;;;26.98;13.38;;;;;;;11.11;60.22;98731.63;4938125;29;20039;-72
2021/05/28 04:35:49;;;;;;;26.17;13.45;;;;;;;11.16;60.02;98724.16;4934281;29;20524;-71
2021/05/28 04:38:14;;;;;;;29.55;13.93;;;;;;;11.24;60.45;98722.66;4939430;29;20055;-71
2021/05/28 04:40:40;;;;;;;24.58;13.45;;;;;;;11.30;60.05;98732.47;4937662;29;20409;-72
2021/05/28 04:43:05;;;;;;;27.80;13.43;;;;;;;11.36;59.56;98733.25;4935122;29;20491;-71
2021/05/28 04:45:31;;;;;;;31.02;13.55;;;;;;;11.40;59.41;98723.31;4934195;29;20032;-72
2021/05/28 04:47:56;;;;;;;27.65;14.05;;;;;;;11.49;59.76;98734.44;4946132;29;20126;-72
2021/05/28 04:50:30;;;;;;;26.00;13.77;;;;;;;11.55;60.13;98727.78;4952474;28;20059;-72
2021/05/28 04:52:56;;;;;;;27.83;13.90;;;;;;;11.62;60.40;98730.13;4935420;28;20043;-71
2021/05/28 04:55:21;;;;;;;24.02;11.10;;;;;;;11.68;59.49;98736.38;4950212;28;20023;-71
2021/05/28 04:57:47;;;;;;;21.65;11.38;;;;;;;11.70;59.53;98728.66;4951704;28;20062;-71
2021/05/28 05:00:13;;;;;;;19.33;9.38;;;;;;;11.75;59.51;98734.06;4941216;29;20482;-71
2021/05/28 05:02:38;;;;;;;17.05;9.68;;;;;;;11.78;59.10;98736.22;4962075;28;20035;-71
2021/05/28 05:05:04;;;;;;;18.17;9.90;;;;;;;11.84;59.60;98743.28;4952169;28;20069;-70
2021/05/28 05:07:30;;;;;;;18.10;10.05;;;;;;;11.90;59.56;98744.00;4951803;28;20054;-71
2021/05/28 05:09:55;;;;;;;16.58;9.00;;;;;;;11.95;59.09;98746.69;4957261;28;20058;-69
2021/05/28 05:12:20;;;;;;;23.17;11.25;;;;;;;12.00;59.32;98743.09;4941817;29;20470;-70
2021/05/28 05:14:46;;;;;;;24.30;10.95;;;;;;;12.10;59.50;98751.16;4942652;28;20053;-69
2021/05/28 05:17:11;;;;;;;20.48;9.75;;;;;;;12.15;58.93;98747.53;4943927;29;20028;-69
2021/05/28 05:19:36;;;;;;;16.20;9.52;;;;;;;12.24;58.77;98758.66;4941659;28;20035;-70
2021/05/28 05:22:02;;;;;;;18.20;9.23;;;;;;;12.29;58.58;98761.31;4948600;28;20036;-70
2021/05/28 05:24:27;;;;;;;21.48;10.85;;;;;;;12.29;58.77;98759.38;4932632;29;20028;-69
2021/05/28 05:26:52;;;;;;;39.70;15.95;;;;;;;12.35;58.73;98766.44;4932657;29;20135;-69
2021/05/28 05:29:18;;;;;;;15.82;10.00;;;;;;;12.39;58.51;98774.09;4946753;28;20089;-69
2021/05/28 05:31:44;;;;;;;35.50;16.00;;;;;;;12.40;58.33;98768.31;4942072;29;20054;-69
2021/05/28 05:34:09;;;;;;;16.52;9.85;;;;;;;12.38;57.84;98764.19;4945110;28;20041;-69
2021/05/28 05:36:36;;;;;;;16.13;8.77;;;;;;;12.36;58.10;98767.25;4942005;29;20038;-69
2021/05/28 05:39:03;;;;;;;14.25;8.35;;;;;;;12.37;58.05;98768.91;4946234;29;20078;-69
2021/05/28 05:41:28;;;;;;;20.83;10.18;;;;;;;12.38;57.99;98781.53;4948652;29;20649;-69
2021/05/28 05:43:53;;;;;;;17.63;9.35;;;;;;;12.42;57.89;98776.22;4937802;29;20107;-70
2021/05/28 05:46:19;;;;;;;18.25;10.05;;;;;;;12.47;57.57;98785.22;4950272;29;20065;-69
2021/05/28 05:48:44;;;;;;;14.43;7.22;;;;;;;12.55;57.81;98782.88;4955307;28;20054;-71
2021/05/28 05:51:10;;;;;;;19.95;8.73;;;;;;;12.59;58.01;98781.19;4932158;29;20062;-70
2021/05/28 05:53:35;;;;;;;15.10;8.07;;;;;;;12.67;57.94;98777.72;4933295;29;20067;-71
2021/05/28 05:56:01;;;;;;;14.10;7.20;;;;;;;12.70;57.45;98774.38;4940243;29;20500;-70
2021/05/28 05:58:26;;;;;;;13.25;7.00;;;;;;;12.74;57.68;98778.16;4933493;28;20410;-70
2021/05/28 06:00:51;;;;;;;12.63;6.60;;;;;;;12.77;57.08;98779.47;4938117;29;20023;-70
2021/05/28 06:03:17;;;;;;;16.30;7.70;;;;;;;12.77;57.28;98794.06;4938362;29;20477;-69
2021/05/28 06:05:42;;;;;;;13.02;7.53;;;;;;;12.76;56.62;98789.69;4945313;28;20031;-68
2021/05/28 06:08:08;;;;;;;14.32;7.78;;;;;;;12.75;56.84;98793.56;4948092;28;20557;-69
2021/05/28 06:10:33;;;;;;;14.93;7.38;;;;;;;12.75;56.98;98782.56;4942108;29;20059;-68
2021/05/28 06:13:04;;;;;;;12.20;6.75;;;;;;;12.72;56.68;98788.66;4930515;29;20876;-68
2021/05/28 06:15:29;;;;;;;15.80;8.40;;;;;;;12.71;56.55;98773.25;4930584;29;20429;-67
2021/05/28 06:17:54;;;;;;;13.57;7.70;;;;;;;12.73;56.98;98771.03;4934411;29;20042;-68
2021/05/28 06:20:20;;;;;;;15.43;7.60;;;;;;;12.80;57.05;98774.19;4943830;29;20035;-68
2021/05/28 06:22:48;;;;;;;15.65;7.60;;;;;;;12.87;56.81;98775.72;4934954;29;20072;-68
2021/05/28 06:25:13;;;;;;;12.93;7.60;;;;;;;12.90;56.95;98783.38;4946134;29;20541;-68
2021/05/28 06:27:38;;;;;;;15.10;7.32;;;;;;;12.95;56.77;98775.03;4941358;29;20050;-69
2021/05/28 06:30:05;;;;;;;12.60;6.88;;;;;;;13.01;56.92;98775.75;4947190;28;20031;-69
2021/05/28 06:32:30;;;;;;;10.30;6.25;;;;;;;13.07;56.91;98769.84;4931622;29;20090;-69
2021/05/28 06:34:55;;;;;;;10.65;6.50;;;;;;;13.16;56.65;98758.13;4931592;29;20422;-69
2021/05/28 06:37:20;;;;;;;10.80;6.40;;;;;;;13.25;56.64;98765.34;4947454;29;20485;-70
2021/05/28 06:39:46;;;;;;;10.27;6.03;;;;;;;13.33;56.39;98765.75;4931781;28;20038;-70
2021/05/28 06:42:11;;;;;;;12.43;7.43;;;;;;;13.40;56.38;98778.00;4942655;29;20028;-70
2021/05/28 06:44:36;;;;;;;13.32;7.43;;;;;;;13.50;56.44;98770.66;4945497;29;20035;-69
2021/05/28 06:47:02;;;;;;;8.25;5.13;;;;;;;13.53;55.82;98770.06;4932972;29;20114;-68
2021/05/28 06:49:27;;;;;;;10.20;6.40;;;;;;;13.55;55.24;98765.06;4943880;29;20032;-69
2021/05/28 06:51:53;;;;;;;9.45;6.05;;;;;;;13.60;55.19;98767.69;4936188;29;20505;-69
2021/05/28 06:54:18;;;;;;;12.80;6.53;;;;;;;13.65;55.17;98769.53;4946290;29;20039;-71
2021/05/28 06:56:44;;;;;;;9.55;5.60;;;;;;;13.72;55.10;98771.84;4935011;29;20031;-70
2021/05/28 06:59:11;;;;;;;8.15;5.32;;;;;;;13.79;55.18;98766.72;4940332;28;20038;-70
2021/05/28 07:01:36;;;;;;;10.95;5.93;;;;;;;13.91;55.21;98768.94;4935469;28;20040;-71
2021/05/28 07:04:03;;;;;;;11.10;6.93;;;;;;;13.99;54.75;98773.72;4946449;28;20662;-69
2021/05/28 07:06:30;;;;;;;10.80;7.00;;;;;;;14.04;54.64;98772.81;4937260;28;20079;-69
2021/05/28 07:08:56;;;;;;;10.10;6.47;;;;;;;14.10;54.45;98775.13;4943043;29;21564;-69
2021/05/28 07:11:23;;;;;;;12.27;7.50;;;;;;;14.12;53.81;98781.13;4939919;29;20108;-71
2021/05/28 07:13:48;;;;;;;11.88;8.15;;;;;;;14.17;53.96;98777.44;4957807;28;20057;-70
2021/05/28 07:16:14;;;;;;;12.82;7.88;;;;;;;14.25;53.69;98782.22;4937033;29;20486;-69
2021/05/28 07:18:39;;;;;;;10.80;7.65;;;;;;;14.29;53.56;98777.69;4943979;29;20604;-69
2021/05/28 07:21:04;;;;;;;12.10;8.35;;;;;;;14.31;53.40;98784.84;4938101;28;20027;-69
2021/05/28 07:23:31;;;;;;;10.02;7.45;;;;;;;14.36;53.24;98774.50;4955957;28;20050;-68
2021/05/28 07:25:59;;;;;;;11.30;7.63;;;;;;;14.43;53.53;98776.84;4937033;29;20023;-71
2021/05/28 07:28:25;;;;;;;11.75;7.75;;;;;;;14.49;53.23;98780.28;4946485;28;20520;-71
2021/05/28 07:30:51;;;;;;;14.52;8.57;;;;;;;14.55;53.05;98781.78;4936719;28;20031;-70
2021/05/28 07:33:16;;;;;;;13.07;8.10;;;;;;;14.55;53.30;98790.84;4940844;29;20401;-70
2021/05/28 07:35:42;;;;;;;13.43;8.55;;;;;;;14.59;52.78;98785.53;4942056;28;20027;-70
2021/05/28 07:38:07;;;;;;;15.95;8.55;;;;;;;14.55;52.45;98788.09;4942069;29;20092;-69
2021/05/28 07:40:32;;;;;;;12.93;8.27;;;;;;;14.53;52.65;98782.06;4945475;29;20492;-72
2021/05/28 07:42:59;;;;;;;27.90;15.48;;;;;;;14.55;52.96;98784.53;4937290;28;20047;-69
2021/05/28 07:45:25;;;;;;;15.02;8.48;;;;;;;14.55;52.78;98787.28;4943795;28;20118;-70
2021/05/28 07:47:50;;;;;;;12.50;8.73;;;;;;;14.56;53.20;98784.22;4940636;29;20471;-69
2021/05/28 07:50:15;;;;;;;21.02;9.77;;;;;;;14.61;53.00;98779.69;4949091;28;20078;-72
2021/05/28 07:52:41;;;;;;;13.70;9.15;;;;;;;14.66;52.68;98774.03;4942216;29;20389;-70
2021/05/28 07:55:07;;;;;;;12.15;8.18;;;;;;;14.64;52.55;98777.13;4939443;29;20043;-70
2021/05/28 07:57:32;;;;;;;12.52;7.75;;;;;;;14.64;52.61;98779.06;4937419;28;20031;-70
2021/05/28 07:59:58;;;;;;;14.50;9.55;;;;;;;14.65;52.70;98780.69;4944119;29;20036;-69
2021/05/28 08:02:25;;;;;;;15.93;9.80;;;;;;;14.61;52.25;98779.69;4937348;29;20429;-70
2021/05/28 08:04:50;;;;;;;16.30;8.52;;;;;;;14.59;52.38;98783.59;4941341;29;20485;-69
2021/05/28 08:07:16;;;;;;;15.50;9.02;;;;;;;14.64;52.61;98779.06;4946307;29;20038;-69
2021/05/28 08:09:41;;;;;;;12.65;8.90;;;;;;;14.67;52.61;98779.22;4943750;29;20031;-69
2021/05/28 08:12:06;;;;;;;15.02;9.45;;;;;;;14.75;52.68;98774.94;4947193;29;20039;-70
2021/05/28 08:14:32;;;;;;;12.98;7.65;;;;;;;14.86;52.31;98781.84;4934386;29;20083;-69
2021/05/28 08:16:57;;;;;;;10.45;7.60;;;;;;;14.85;51.66;98760.88;4932218;29;20106;-71
2021/05/28 08:19:22;;;;;;;8.63;6.65;;;;;;;14.82;50.83;98771.72;4945560;29;20034;-69
2021/05/28 08:21:49;;;;;;;15.05;10.52;;;;;;;14.76;50.45;98764.69;4938244;29;20540;-68
2021/05/28 08:24:15;;;;;;;7.75;5.53;;;;;;;14.75;50.92;98769.41;4932948;29;20048;-68
2021/05/28 08:26:41;;;;;;;6.47;3.83;;;;;;;14.70;51.03;98773.13;4946722;28;20023;-69
2021/05/28 08:29:07;;;;;;;7.13;4.57;;;;;;;14.67;51.21;98767.38;4946231;28;20067;-70
2021/05/28 08:31:33;;;;;;;10.75;5.47;;;;;;;14.69;51.38;98767.91;4941076;28;20035;-69
2021/05/28 08:33:59;;;;;;;11.15;5.60;;;;;;;14.73;51.39;98766.16;4952356;28;20054;-69
2021/05/28 08:36:24;;;;;;;8.93;5.35;;;;;;;14.77;51.22;98771.84;4945182;29;20525;-71
2021/05/28 08:38:49;;;;;;;9.80;5.30;;;;;;;14.75;51.49;98774.94;4941816;28;20082;-70
2021/05/28 08:41:15;;;;;;;7.97;4.20;;;;;;;14.74;51.25;98792.63;4948358;28;20027;-68
2021/05/28 08:43:43;;;;;;;6.28;3.80;;;;;;;14.69;50.91;98779.75;4949089;29;20031;-69
2021/05/28 08:46:11;;;;;;;8.35;4.97;;;;;;;14.59;51.27;98789.09;4949764;28;20101;-69
2021/05/28 08:48:37;;;;;;;10.02;7.40;;;;;;;14.53;51.60;98790.34;4941758;28;20714;-69
2021/05/28 08:51:03;;;;;;;15.27;7.63;;;;;;;14.55;52.06;98793.63;4946592;28;20031;-69
2021/05/28 08:53:28;;;;;;;13.70;8.70;;;;;;;14.50;52.05;98799.25;4940122;29;20039;-69
2021/05/28 08:55:54;;;;;;;18.90;11.38;;;;;;;14.41;52.79;98798.41;4932274;29;20359;-69
2021/05/28 08:58:22;;;;;;;13.25;6.43;;;;;;;14.35;52.61;98794.13;4942714;28;20046;-70
2021/05/28 09:00:48;;;;;;;11.25;6.28;;;;;;;14.36;52.83;98796.56;4942097;28;20082;-71
2021/05/28 09:03:21;;;;;;;19.17;10.13;;;;;;;14.40;53.40;98791.25;4951061;29;20039;-70
2021/05/28 09:05:48;;;;;;;22.90;9.80;;;;;;;14.47;53.45;98790.81;4950616;28;20027;-71
2021/05/28 09:08:13;;;;;;;9.50;5.85;;;;;;;14.51;53.37;98794.56;4936011;28;20088;-71
2021/05/28 09:10:41;;;;;;;14.55;6.28;;;;;;;14.56;53.34;98783.41;4931976;29;20059;-70
2021/05/28 09:13:13;;;;;;;21.05;9.93;;;;;;;14.64;53.52;98787.34;4935659;29;20039;-70
2021/05/28 09:15:47;;;;;;;14.70;7.95;;;;;;;14.67;53.19;98792.22;4933253;28;20418;-71
2021/05/28 09:18:13;;;;;;;21.15;8.52;;;;;;;14.69;53.08;98782.53;4935463;29;20482;-70
2021/05/28 09:20:44;;;;;;;19.05;8.27;;;;;;;14.81;52.81;98783.91;4963949;28;20050;-70
2021/05/28 09:23:13;;;;;;;8.88;4.95;;;;;;;14.87;53.07;98783.47;4945044;29;20031;-69
2021/05/28 09:25:57;;;;;;;7.55;5.28;;;;;;;14.94;52.31;98782.16;4933777;29;20135;-70
2021/05/28 09:28:24;;;;;;;7.35;5.35;;;;;;;14.98;52.25;98772.13;4935327;28;20027;-70
2021/05/28 09:30:54;;;;;;;13.93;6.20;;;;;;;15.06;51.90;98773.31;4941410;29;20039;-69
2021/05/28 09:33:20;;;;;;;10.57;6.05;;;;;;;15.10;51.97;98775.09;4938571;29;20043;-70
2021/05/28 09:35:48;;;;;;;13.77;8.60;;;;;;;15.18;52.03;98770.75;4939686;29;20036;-69
2021/05/28 09:38:24;;;;;;;15.23;7.70;;;;;;;15.20;51.58;98776.75;4948895;29;20051;-70
2021/05/28 09:40:50;;;;;;;14.40;8.70;;;;;;;15.20;51.67;98774.00;4945785;28;20062;-70
2021/05/28 09:43:23;;;;;;;15.40;6.68;;;;;;;15.23;51.66;98778.09;4950925;29;20132;-70
2021/05/28 09:45:49;;;;;;;12.57;6.50;;;;;;;15.25;51.60;98781.34;4938623;29;20034;-69
2021/05/28 09:48:14;;;;;;;15.82;7.40;;;;;;;15.21;51.34;98780.34;4945829;28;20027;-69
2021/05/28 09:50:50;;;;;;;12.75;7.45;;;;;;;15.17;51.04;98774.63;4941286;29;20541;-69
2021/05/28 09:53:32;;;;;;;12.68;6.57;;;;;;;15.15;51.20;98774.13;4940058;28;20654;-70
2021/05/28 09:56:23;;;;;;;9.93;7.20;;;;;;;15.19;51.38;98777.91;4963708;28;20028;-69
2021/05/28 09:59:01;;;;;;;9.23;5.28;;;;;;;15.29;50.84;98771.25;4943525;29;20071;-70
2021/05/28 10:01:27;;;;;;;8.93;5.47;;;;;;;15.38;50.07;98772.09;4947450;28;20544;-70
2021/05/28 10:04:07;;;;;;;11.38;6.22;;;;;;;15.48;50.79;98766.28;4945917;29;20028;-71
2021/05/28 10:06:35;;;;;;;11.68;7.53;;;;;;;15.65;49.90;98756.41;4940260;28;20031;-71
2021/05/28 10:09:05;;;;;;;11.45;6.95;;;;;;;15.77;50.19;98755.78;4947116;28;20116;-71
2021/05/28 10:11:32;;;;;;;11.40;7.00;;;;;;;15.90;50.73;98749.28;4938322;29;20035;-70
2021/05/28 10:13:57;;;;;;;10.88;6.68;;;;;;;16.04;50.74;98765.75;4940988;29;20629;-70
2021/05/28 10:16:24;;;;;;;12.27;7.82;;;;;;;16.15;49.67;98748.81;4944468;29;20067;-70
2021/05/28 10:18:51;;;;;;;13.82;8.25;;;;;;;16.21;49.43;98747.50;4945159;29;20449;-70
2021/05/28 10:21:17;;;;;;;11.25;7.13;;;;;;;16.27;49.41;98748.97;4939431;28;20027;-69
2021/05/28 10:23:43;;;;;;;18.17;9.27;;;;;;;16.34;49.18;98752.06;4938171;28;20028;-70
2021/05/28 10:26:09;;;;;;;9.75;6.70;;;;;;;16.37;48.81;98754.16;4937785;29;20047;-69
2021/05/28 10:28:36;;;;;;;14.73;6.88;;;;;;;16.41;49.01;98748.78;4936722;29;20061;-69
2021/05/28 10:31:03;;;;;;;17.02;8.70;;;;;;;16.44;48.61;98753.66;4938050;29;20494;-71
2021/05/28 10:33:30;;;;;;;12.93;7.15;;;;;;;16.51;48.82;98748.44;4945685;29;20035;-70
2021/05/28 10:35:57;;;;;;;18.98;9.15;;;;;;;16.61;48.87;98752.00;4936360;28;20031;-70
2021/05/28 10:38:31;;;;;;;11.90;6.95;;;;;;;16.66;48.58;98744.31;4932418;29;20047;-71
2021/05/28 10:40:59;;;;;;;14.55;6.93;;;;;;;16.70;48.26;98747.28;4936360;29;20063;-71
2021/05/28 10:43:26;;;;;;;10.45;5.97;;;;;;;16.74;48.16;98741.88;4938004;29;20517;-71
2021/05/28 10:46:08;;;;;;;8.95;5.70;;;;;;;16.75;47.85;98743.50;4939039;28;20024;-70
2021/05/28 10:48:40;;;;;;;9.05;4.82;;;;;;;16.76;46.92;98757.00;4947651;28;20030;-71
2021/05/28 10:51:07;;;;;;;6.43;4.50;;;;;;;16.77;47.37;98749.53;4936334;28;20024;-70
2021/05/28 10:53:34;;;;;;;5.95;4.00;;;;;;;16.85;47.19;98747.84;4933967;29;20394;-71
2021/05/28 10:56:11;;;;;;;5.75;3.65;;;;;;;16.89;46.85;98752.44;4935818;28;20052;-71
2021/05/28 10:58:56;;;;;;;6.00;3.60;;;;;;;16.83;45.27;98756.50;4950940;28;20031;-70
2021/05/28 11:01:31;;;;;;;5.40;3.38;;;;;;;16.70;44.97;98766.66;4938734;29;20034;-70
2021/05/28 11:03:56;;;;;;;7.95;4.13;;;;;;;16.65;45.06;98772.38;4940113;29;20082;-71
2021/05/28 11:06:22;;;;;;;12.70;5.72;;;;;;;16.57;44.85;98775.97;4937483;29;20035;-71
2021/05/28 11:08:49;;;;;;;9.15;5.43;;;;;;;16.37;45.94;98779.09;4946551;29;20118;-72
2021/05/28 11:11:36;;;;;;;11.20;6.45;;;;;;;16.19;46.75;98780.22;4944289;29;20039;-71
2021/05/28 11:14:11;;;;;;;11.60;6.05;;;;;;;15.99;47.80;98781.69;4937004;29;20031;-70
2021/05/28 11:16:59;;;;;;;13.40;6.47;;;;;;;15.85;47.70;98779.88;4962277;28;20712;-70
2021/05/28 11:19:29;;;;;;;10.23;5.40;;;;;;;15.73;47.92;98780.47;4948583;28;20043;-71
2021/05/28 11:21:57;;;;;;;11.73;4.72;;;;;;;15.70;48.36;98781.13;4945362;29;20030;-70